createdAt,value
2019-01-03T00:00:54.180Z,-3.41
2019-01-03T00:02:02.244Z,-3.48
2019-01-03T00:03:10.284Z,-3.52
2019-01-03T00:04:18.360Z,-3.53
2019-01-03T00:05:26.387Z,-3.62
2019-01-03T00:06:34.476Z,-3.57
2019-01-03T00:07:42.504Z,-3.59
2019-01-03T00:08:50.571Z,-3.62
2019-01-03T00:09:58.605Z,-3.66
2019-01-03T00:11:06.664Z,-3.75
2019-01-03T00:12:14.724Z,-3.75
2019-01-03T00:13:22.765Z,-3.72
2019-01-03T00:14:30.863Z,-3.78
2019-01-03T00:15:38.881Z,-3.72
2019-01-03T00:16:46.935Z,-3.81
2019-01-03T00:17:54.983Z,-3.78
2019-01-03T00:19:04.101Z,-3.76
2019-01-03T00:20:11.073Z,-3.75
2019-01-03T00:21:19.145Z,-3.86
2019-01-03T00:22:27.232Z,-3.82
2019-01-03T00:23:35.256Z,-3.90
2019-01-03T00:24:43.316Z,-3.88
2019-01-03T00:25:51.367Z,-3.91
2019-01-03T00:26:59.418Z,-3.82
2019-01-03T00:28:07.490Z,-3.91
2019-01-03T00:29:15.504Z,-3.79
2019-01-03T00:30:23.555Z,-3.90
2019-01-03T00:31:31.627Z,-3.94
2019-01-03T00:32:39.679Z,-3.93
2019-01-03T00:33:47.784Z,-3.94
2019-01-03T00:34:55.781Z,-4.01
2019-01-03T00:36:03.833Z,-4.01
2019-01-03T00:37:11.873Z,-3.99
2019-01-03T00:38:19.932Z,-4.06
2019-01-03T00:39:27.973Z,-4.03
2019-01-03T00:40:36.043Z,-4.10
2019-01-03T00:41:44.106Z,-4.14
2019-01-03T00:42:52.172Z,-4.14
2019-01-03T00:44:00.204Z,-4.17
2019-01-03T00:45:08.253Z,-4.18
2019-01-03T00:46:16.319Z,-4.15
2019-01-03T00:47:24.361Z,-4.21
2019-01-03T00:48:32.423Z,-4.18
2019-01-03T00:49:40.474Z,-4.24
2019-01-03T00:50:48.515Z,-4.12
2019-01-03T00:51:56.589Z,-4.24
2019-01-03T00:53:04.632Z,-4.18
2019-01-03T00:54:12.695Z,-4.24
2019-01-03T00:55:20.712Z,-4.22
2019-01-03T00:56:28.775Z,-4.24
2019-01-03T00:57:36.850Z,-4.20
2019-01-03T00:58:44.888Z,-4.21
2019-01-03T00:59:52.944Z,-4.28
2019-01-03T01:01:00.984Z,-4.18
2019-01-03T01:02:09.048Z,-4.33
2019-01-03T01:03:17.102Z,-4.30
2019-01-03T01:04:25.166Z,-4.25
2019-01-03T01:05:33.214Z,-4.24
2019-01-03T01:06:41.246Z,-4.21
2019-01-03T01:07:49.309Z,-4.20
2019-01-03T01:08:57.374Z,-4.21
2019-01-03T01:10:05.416Z,-4.21
2019-01-03T01:11:13.464Z,-4.21
2019-01-03T01:12:21.520Z,-4.21
2019-01-03T01:13:29.579Z,-4.33
2019-01-03T01:14:37.658Z,-4.33
2019-01-03T01:15:45.682Z,-4.38
2019-01-03T01:16:53.745Z,-4.32
2019-01-03T01:18:01.791Z,-4.30
2019-01-03T01:19:09.805Z,-4.30
2019-01-03T01:20:17.898Z,-4.36
2019-01-03T01:21:25.944Z,-4.40
2019-01-03T01:22:34.034Z,-4.40
2019-01-03T01:23:42.041Z,-4.47
2019-01-03T01:27:37.597Z,-4.43
2019-01-03T01:28:45.629Z,-4.40
2019-01-03T01:29:53.704Z,-4.35
2019-01-03T01:31:01.711Z,-4.50
2019-01-03T01:32:09.767Z,-4.43
2019-01-03T01:33:17.855Z,-4.43
2019-01-03T01:34:25.906Z,-4.47
2019-01-03T01:35:33.932Z,-4.49
2019-01-03T01:36:41.978Z,-4.49
2019-01-03T01:37:50.050Z,-4.46
2019-01-03T01:38:58.114Z,-4.46
2019-01-03T01:40:06.149Z,-4.50
2019-01-03T01:41:14.204Z,-4.58
2019-01-03T01:42:22.255Z,-4.57
2019-01-03T01:43:30.309Z,-4.51
2019-01-03T01:44:38.357Z,-4.49
2019-01-03T01:45:46.409Z,-4.54
2019-01-03T01:46:54.476Z,-4.56
2019-01-03T01:48:02.495Z,-4.53
2019-01-03T01:49:10.560Z,-4.46
2019-01-03T01:50:18.648Z,-4.54
2019-01-03T01:51:26.680Z,-4.60
2019-01-03T01:52:34.728Z,-4.60
2019-01-03T01:53:42.809Z,-4.69
2019-01-03T01:54:50.810Z,-4.56
2019-01-03T01:55:58.908Z,-4.61
2019-01-03T01:57:06.956Z,-4.63
2019-01-03T01:58:15.031Z,-4.56
2019-01-03T01:59:23.037Z,-4.60
2019-01-03T02:00:31.110Z,-4.60
2019-01-03T02:01:39.146Z,-4.71
2019-01-03T02:02:47.185Z,-4.61
2019-01-03T02:03:55.257Z,-4.67
2019-01-03T02:05:03.304Z,-4.61
2019-01-03T02:06:11.410Z,-4.61
2019-01-03T02:07:19.419Z,-4.65
2019-01-03T02:08:27.465Z,-4.74
2019-01-03T02:09:35.514Z,-4.77
2019-01-03T02:10:43.569Z,-4.69
2019-01-03T02:11:51.613Z,-4.71
2019-01-03T02:12:59.690Z,-4.75
2019-01-03T02:14:07.718Z,-4.81
2019-01-03T02:15:15.759Z,-4.81
2019-01-03T02:16:23.811Z,-4.69
2019-01-03T02:17:31.876Z,-4.81
2019-01-03T02:18:39.925Z,-4.81
2019-01-03T02:19:47.986Z,-4.89
2019-01-03T02:20:56.024Z,-4.83
2019-01-03T02:22:04.106Z,-4.83
2019-01-03T02:23:12.149Z,-4.93
2019-01-03T02:24:20.189Z,-4.92
2019-01-03T02:25:28.236Z,-4.86
2019-01-03T02:26:36.314Z,-5.00
2019-01-03T02:27:44.356Z,-4.99
2019-01-03T02:28:52.440Z,-4.93
2019-01-03T02:30:00.451Z,-4.99
2019-01-03T02:31:08.534Z,-5.04
2019-01-03T02:32:16.559Z,-5.00
2019-01-03T02:33:24.608Z,-4.96
2019-01-03T02:34:32.693Z,-4.93
2019-01-03T02:35:40.697Z,-5.06
2019-01-03T02:36:48.778Z,-4.95
2019-01-03T02:37:56.827Z,-4.99
2019-01-03T02:39:04.885Z,-4.95
2019-01-03T02:40:12.928Z,-4.97
2019-01-03T02:41:20.973Z,-4.97
2019-01-03T02:42:29.025Z,-4.97
2019-01-03T02:43:37.088Z,-4.97
2019-01-03T02:44:45.140Z,-4.99
2019-01-03T02:45:53.188Z,-4.99
2019-01-03T02:47:01.239Z,-4.97
2019-01-03T02:48:09.281Z,-4.96
2019-01-03T02:49:17.380Z,-4.99
2019-01-03T02:50:25.392Z,-5.00
2019-01-03T02:51:33.463Z,-4.95
2019-01-03T02:52:41.491Z,-4.93
2019-01-03T02:53:49.547Z,-4.97
2019-01-03T02:54:57.624Z,-5.03
2019-01-03T02:56:05.674Z,-4.89
2019-01-03T02:57:13.724Z,-4.89
2019-01-03T02:58:23.511Z,-4.92
2019-01-03T02:59:29.809Z,-5.03
2019-01-03T03:00:37.900Z,-4.93
2019-01-03T03:01:45.920Z,-4.97
2019-01-03T03:02:53.978Z,-4.95
2019-01-03T03:04:02.031Z,-5.06
2019-01-03T03:05:10.076Z,-5.04
2019-01-03T03:06:18.179Z,-5.03
2019-01-03T03:07:26.183Z,-5.06
2019-01-03T03:08:34.234Z,-5.06
2019-01-03T03:09:42.294Z,-5.06
2019-01-03T03:10:50.340Z,-5.07
2019-01-03T03:11:58.402Z,-5.13
2019-01-03T03:13:06.441Z,-5.18
2019-01-03T03:14:14.532Z,-5.19
2019-01-03T03:15:22.544Z,-5.14
2019-01-03T03:16:30.595Z,-5.25
2019-01-03T03:17:38.653Z,-5.32
2019-01-03T03:18:46.691Z,-5.25
2019-01-03T03:19:54.762Z,-5.22
2019-01-03T03:21:02.800Z,-5.25
2019-01-03T03:22:10.928Z,-5.19
2019-01-03T03:23:18.914Z,-5.26
2019-01-03T03:24:26.962Z,-5.27
2019-01-03T03:25:35.033Z,-5.26
2019-01-03T03:26:43.062Z,-5.26
2019-01-03T03:27:51.117Z,-5.25
2019-01-03T03:28:59.169Z,-5.27
2019-01-03T03:30:07.207Z,-5.30
2019-01-03T03:31:15.267Z,-5.30
2019-01-03T03:32:23.330Z,-5.30
2019-01-03T03:33:31.374Z,-5.32
2019-01-03T03:34:39.428Z,-5.30
2019-01-03T03:35:47.492Z,-5.27
2019-01-03T03:36:55.539Z,-5.19
2019-01-03T03:38:03.594Z,-5.25
2019-01-03T03:39:11.644Z,-5.26
2019-01-03T03:40:19.691Z,-5.17
2019-01-03T03:41:27.739Z,-5.14
2019-01-03T03:42:35.801Z,-5.11
2019-01-03T03:43:43.873Z,-5.22
2019-01-03T03:44:51.898Z,-5.19
2019-01-03T03:45:59.949Z,-5.19
2019-01-03T03:47:07.999Z,-5.19
2019-01-03T03:48:16.079Z,-5.26
2019-01-03T03:49:24.136Z,-5.23
2019-01-03T03:50:32.145Z,-5.19
2019-01-03T03:51:40.210Z,-5.14
2019-01-03T03:52:48.252Z,-5.17
2019-01-03T03:53:56.395Z,-5.17
2019-01-03T03:55:04.380Z,-5.25
2019-01-03T03:56:12.492Z,-5.22
2019-01-03T03:57:20.464Z,-5.25
2019-01-03T03:58:28.526Z,-5.26
2019-01-03T03:59:36.577Z,-5.33
2019-01-03T04:00:44.646Z,-5.33
2019-01-03T04:01:52.729Z,-5.44
2019-01-03T04:03:00.716Z,-5.41
2019-01-03T04:04:08.782Z,-5.43
2019-01-03T04:05:16.850Z,-5.50
2019-01-03T04:06:24.903Z,-5.47
2019-01-03T04:07:32.951Z,-5.61
2019-01-03T04:08:40.997Z,-5.51
2019-01-03T04:09:49.072Z,-5.47
2019-01-03T04:10:57.102Z,-5.57
2019-01-03T04:12:05.164Z,-5.59
2019-01-03T04:13:13.205Z,-5.59
2019-01-03T04:14:21.270Z,-5.61
2019-01-03T04:15:29.343Z,-5.59
2019-01-03T04:16:37.370Z,-5.59
2019-01-03T04:17:45.458Z,-5.59
2019-01-03T04:18:53.466Z,-5.61
2019-01-03T04:20:01.509Z,-5.61
2019-01-03T04:21:09.576Z,-5.57
2019-01-03T04:22:17.631Z,-5.55
2019-01-03T04:23:25.689Z,-5.59
2019-01-03T04:24:33.727Z,-5.48
2019-01-03T04:25:41.784Z,-5.54
2019-01-03T04:26:49.815Z,-5.53
2019-01-03T04:27:57.890Z,-5.57
2019-01-03T04:29:05.934Z,-5.41
2019-01-03T04:30:14.027Z,-5.50
2019-01-03T04:31:22.042Z,-5.50
2019-01-03T04:32:30.182Z,-5.53
2019-01-03T04:33:38.146Z,-5.50
2019-01-03T04:34:46.203Z,-5.47
2019-01-03T04:35:54.236Z,-5.51
2019-01-03T04:37:02.301Z,-5.51
2019-01-03T04:38:10.391Z,-5.59
2019-01-03T04:39:18.396Z,-5.65
2019-01-03T04:40:26.455Z,-5.62
2019-01-03T04:41:34.506Z,-5.62
2019-01-03T04:42:42.572Z,-5.69
2019-01-03T04:43:50.595Z,-5.69
2019-01-03T04:44:58.713Z,-5.71
2019-01-03T04:46:06.764Z,-5.76
2019-01-03T04:47:14.757Z,-5.79
2019-01-03T04:48:22.822Z,-5.80
2019-01-03T04:49:30.836Z,-5.76
2019-01-03T04:50:38.919Z,-5.82
2019-01-03T04:51:46.961Z,-5.82
2019-01-03T04:52:55.016Z,-5.87
2019-01-03T04:54:03.119Z,-5.83
2019-01-03T04:55:11.106Z,-5.86
2019-01-03T04:56:19.180Z,-5.90
2019-01-03T04:57:27.234Z,-6.07
2019-01-03T04:58:35.276Z,-6.05
2019-01-03T04:59:43.337Z,-6.03
2019-01-03T05:00:51.380Z,-6.15
2019-01-03T05:01:59.469Z,-6.03
2019-01-03T05:03:07.495Z,-6.03
2019-01-03T05:04:15.557Z,-6.04
2019-01-03T05:05:23.601Z,-6.13
2019-01-03T05:06:31.637Z,-6.15
2019-01-03T05:07:39.708Z,-6.10
2019-01-03T05:08:47.739Z,-6.18
2019-01-03T05:09:55.841Z,-6.22
2019-01-03T05:11:03.853Z,-6.26
2019-01-03T05:12:11.918Z,-6.19
2019-01-03T05:13:19.953Z,-6.19
2019-01-03T05:14:28.010Z,-6.18
2019-01-03T05:15:36.073Z,-6.26
2019-01-03T05:16:44.125Z,-6.18
2019-01-03T05:17:52.174Z,-6.32
2019-01-03T05:19:00.223Z,-6.32
2019-01-03T05:20:08.301Z,-6.32
2019-01-03T05:21:16.309Z,-6.42
2019-01-03T05:22:24.412Z,-6.37
2019-01-03T05:23:32.447Z,-6.32
2019-01-03T05:24:40.473Z,-6.44
2019-01-03T05:25:48.533Z,-6.46
2019-01-03T05:26:56.567Z,-6.49
2019-01-03T05:28:04.642Z,-6.42
2019-01-03T05:29:12.686Z,-6.39
2019-01-03T05:30:20.720Z,-6.49
2019-01-03T05:31:30.407Z,-6.40
2019-01-03T05:32:36.835Z,-6.50
2019-01-03T05:33:45.141Z,-6.58
2019-01-03T05:34:52.983Z,-6.55
2019-01-03T05:36:01.208Z,-6.49
2019-01-03T05:37:09.039Z,-6.49
2019-01-03T05:38:17.090Z,-6.55
2019-01-03T05:39:25.142Z,-6.47
2019-01-03T05:40:33.219Z,-6.52
2019-01-03T05:41:41.246Z,-6.50
2019-01-03T05:42:49.296Z,-6.54
2019-01-03T05:43:57.369Z,-6.54
2019-01-03T05:45:05.407Z,-6.50
2019-01-03T05:46:13.481Z,-6.63
2019-01-03T05:47:21.506Z,-6.62
2019-01-03T05:48:29.576Z,-6.55
2019-01-03T05:49:37.990Z,-6.54
2019-01-03T05:50:45.731Z,-6.55
2019-01-03T05:51:53.825Z,-6.55
2019-01-03T05:53:01.761Z,-6.46
2019-01-03T05:54:09.923Z,-6.61
2019-01-03T05:55:17.871Z,-6.54
2019-01-03T05:56:25.935Z,-6.58
2019-01-03T05:57:33.990Z,-6.63
2019-01-03T05:58:42.140Z,-6.50
2019-01-03T05:59:50.088Z,-6.54
2019-01-03T06:00:58.133Z,-6.66
2019-01-03T06:02:06.180Z,-6.54
2019-01-03T06:03:14.289Z,-6.61
2019-01-03T06:04:22.299Z,-6.55
2019-01-03T06:05:30.322Z,-6.61
2019-01-03T06:06:38.392Z,-6.58
2019-01-03T06:07:46.442Z,-6.62
2019-01-03T06:08:54.517Z,-6.55
2019-01-03T06:10:03.004Z,-6.52
2019-01-03T06:11:10.593Z,-6.47
2019-01-03T06:12:18.650Z,-6.50
2019-01-03T06:13:26.721Z,-6.52
2019-01-03T06:14:34.735Z,-6.47
2019-01-03T06:15:42.802Z,-6.54
2019-01-03T06:16:50.815Z,-6.54
2019-01-03T06:17:59.022Z,-6.52
2019-01-03T06:19:08.754Z,-6.58
2019-01-03T06:20:15.242Z,-6.61
2019-01-03T06:21:23.134Z,-6.59
2019-01-03T06:22:31.090Z,-6.59
2019-01-03T06:23:39.151Z,-6.61
2019-01-03T06:24:47.202Z,-6.69
2019-01-03T06:25:55.253Z,-6.61
2019-01-03T06:27:03.318Z,-6.65
2019-01-03T06:28:11.368Z,-6.62
2019-01-03T06:29:19.423Z,-6.54
2019-01-03T06:30:27.480Z,-6.71
2019-01-03T06:31:35.511Z,-6.73
2019-01-03T06:32:43.564Z,-6.73
2019-01-03T06:33:51.623Z,-6.62
2019-01-03T06:34:59.668Z,-6.69
2019-01-03T06:36:07.719Z,-6.63
2019-01-03T06:37:15.761Z,-6.55
2019-01-03T06:38:23.813Z,-6.50
2019-01-03T06:39:31.908Z,-6.59
2019-01-03T06:40:39.931Z,-6.52
2019-01-03T06:41:47.993Z,-6.59
2019-01-03T06:42:56.027Z,-6.54
2019-01-03T06:44:04.082Z,-6.44
2019-01-03T06:45:12.132Z,-6.46
2019-01-03T06:46:20.176Z,-6.59
2019-01-03T06:47:28.256Z,-6.50
2019-01-03T06:48:36.319Z,-6.42
2019-01-03T06:49:44.344Z,-6.49
2019-01-03T06:50:52.377Z,-6.42
2019-01-03T06:52:00.417Z,-6.37
2019-01-03T06:53:08.494Z,-6.36
2019-01-03T06:54:16.542Z,-6.37
2019-01-03T06:55:24.610Z,-6.36
2019-01-03T06:56:32.638Z,-6.32
2019-01-03T06:57:40.713Z,-6.42
2019-01-03T06:58:48.756Z,-6.43
2019-01-03T06:59:56.799Z,-6.34
2019-01-03T07:01:04.843Z,-6.29
2019-01-03T07:02:12.887Z,-6.32
2019-01-03T07:03:20.924Z,-6.18
2019-01-03T07:04:29.005Z,-6.23
2019-01-03T07:05:37.042Z,-6.22
2019-01-03T07:06:45.113Z,-6.22
2019-01-03T07:07:53.215Z,-6.28
2019-01-03T07:09:01.206Z,-6.25
2019-01-03T07:10:09.259Z,-6.16
2019-01-03T07:11:22.045Z,-6.16
2019-01-03T07:12:25.360Z,-6.18
2019-01-03T07:13:33.408Z,-6.13
2019-01-03T07:14:41.453Z,-6.07
2019-01-03T07:15:49.522Z,-6.11
2019-01-03T07:16:57.595Z,-6.04
2019-01-03T07:18:05.619Z,-6.05
2019-01-03T07:19:13.664Z,-6.05
2019-01-03T07:20:21.713Z,-6.01
2019-01-03T07:21:29.777Z,-5.90
2019-01-03T07:22:37.823Z,-5.94
2019-01-03T07:23:45.912Z,-5.90
2019-01-03T07:24:53.937Z,-5.84
2019-01-03T07:26:01.992Z,-5.82
2019-01-03T07:27:10.029Z,-5.83
2019-01-03T07:28:18.081Z,-5.68
2019-01-03T07:29:26.140Z,-5.75
2019-01-03T07:30:34.178Z,-5.59
2019-01-03T07:31:42.295Z,-5.71
2019-01-03T07:32:50.297Z,-5.68
2019-01-03T07:33:58.349Z,-5.59
2019-01-03T07:35:06.408Z,-5.54
2019-01-03T07:36:14.448Z,-5.50
2019-01-03T07:37:22.487Z,-5.53
2019-01-03T07:38:30.541Z,-5.50
2019-01-03T07:39:38.615Z,-5.53
2019-01-03T07:40:46.654Z,-5.51
2019-01-03T07:41:54.694Z,-5.51
2019-01-03T07:43:02.755Z,-5.51
2019-01-03T07:44:10.791Z,-5.50
2019-01-03T07:45:18.866Z,-5.39
2019-01-03T07:46:26.907Z,-5.39
2019-01-03T07:47:34.984Z,-5.43
2019-01-03T07:48:43.018Z,-5.43
2019-01-03T07:49:51.056Z,-5.44
2019-01-03T07:50:59.125Z,-5.36
2019-01-03T07:52:07.184Z,-5.37
2019-01-03T07:53:15.236Z,-5.36
2019-01-03T07:54:23.281Z,-5.26
2019-01-03T07:55:31.341Z,-5.23
2019-01-03T07:56:39.380Z,-5.19
2019-01-03T07:57:47.409Z,-5.22
2019-01-03T07:58:55.536Z,-5.11
2019-01-03T08:00:03.541Z,-5.19
2019-01-03T08:01:11.602Z,-5.11
2019-01-03T08:02:19.631Z,-5.17
2019-01-03T08:03:27.691Z,-5.10
2019-01-03T08:04:35.740Z,-5.10
2019-01-03T08:05:43.802Z,-5.06
2019-01-03T08:06:51.857Z,-4.99
2019-01-03T08:07:59.898Z,-4.96
2019-01-03T08:09:07.938Z,-4.95
2019-01-03T08:10:16.001Z,-4.96
2019-01-03T08:11:24.071Z,-4.87
2019-01-03T08:12:32.117Z,-4.79
2019-01-03T08:13:40.176Z,-4.78
2019-01-03T08:14:48.220Z,-4.71
2019-01-03T08:15:56.269Z,-4.54
2019-01-03T08:17:04.313Z,-4.47
2019-01-03T08:18:12.368Z,-4.51
2019-01-03T08:19:20.416Z,-4.32
2019-01-03T08:20:28.460Z,-4.35
2019-01-03T08:21:36.533Z,-4.11
2019-01-03T08:22:44.581Z,-4.20
2019-01-03T08:23:52.634Z,-4.06
2019-01-03T08:25:00.670Z,-4.06
2019-01-03T08:26:08.740Z,-3.97
2019-01-03T08:27:16.789Z,-3.97
2019-01-03T08:28:24.837Z,-3.94
2019-01-03T08:29:32.904Z,-3.99
2019-01-03T08:30:40.955Z,-3.93
2019-01-03T08:31:48.998Z,-3.76
2019-01-03T08:32:57.054Z,-3.76
2019-01-03T08:34:05.112Z,-3.60
2019-01-03T08:35:13.273Z,-3.59
2019-01-03T08:36:21.213Z,-3.59
2019-01-03T08:37:29.274Z,-3.48
2019-01-03T08:38:37.325Z,-3.45
2019-01-03T08:39:45.378Z,-3.35
2019-01-03T08:40:53.432Z,-3.46
2019-01-03T08:42:01.496Z,-3.36
2019-01-03T08:43:09.537Z,-3.33
2019-01-03T08:44:17.580Z,-3.24
2019-01-03T08:45:25.644Z,-3.21
2019-01-03T08:46:33.728Z,-3.25
2019-01-03T08:47:41.769Z,-3.18
2019-01-03T08:48:49.813Z,-3.12
2019-01-03T08:49:57.853Z,-2.97
2019-01-03T08:51:05.908Z,-2.92
2019-01-03T08:52:13.957Z,-2.82
2019-01-03T08:53:22.017Z,-2.86
2019-01-03T08:54:30.086Z,-2.79
2019-01-03T08:55:38.143Z,-2.73
2019-01-03T08:56:46.182Z,-2.79
2019-01-03T08:57:54.236Z,-2.71
2019-01-03T08:59:02.302Z,-2.63
2019-01-03T09:00:10.325Z,-2.58
2019-01-03T09:01:18.417Z,-2.67
2019-01-03T09:02:26.478Z,-2.40
2019-01-03T09:03:34.520Z,-2.49
2019-01-03T09:04:42.567Z,-2.39
2019-01-03T09:05:50.604Z,-2.34
2019-01-03T09:06:58.671Z,-2.29
2019-01-03T09:08:06.711Z,-2.30
2019-01-03T09:09:14.782Z,-2.24
2019-01-03T09:10:22.819Z,-2.20
2019-01-03T09:11:30.923Z,-2.12
2019-01-03T09:12:38.953Z,-2.08
2019-01-03T09:13:47.001Z,-1.98
2019-01-03T09:14:55.053Z,-1.91
2019-01-03T09:16:03.110Z,-1.80
2019-01-03T09:17:11.156Z,-1.80
2019-01-03T09:18:19.239Z,-1.69
2019-01-03T09:19:27.276Z,-1.62
2019-01-03T09:20:35.316Z,-1.55
2019-01-03T09:21:43.394Z,-1.61
2019-01-03T09:24:47.969Z,-1.51
2019-01-03T09:24:48.124Z,-1.45
2019-01-03T09:25:07.542Z,-1.51
2019-01-03T09:26:15.594Z,-1.48
2019-01-03T09:27:23.650Z,-1.46
2019-01-03T09:28:31.727Z,-1.40
2019-01-03T09:29:39.761Z,-1.38
2019-01-03T09:30:47.804Z,-1.38
2019-01-03T09:31:55.867Z,-1.28
2019-01-03T09:33:03.936Z,-1.16
2019-01-03T09:34:11.985Z,-1.07
2019-01-03T09:35:20.036Z,-1.02
2019-01-03T09:36:28.112Z,-1.12
2019-01-03T09:37:36.142Z,-0.98
2019-01-03T09:38:44.272Z,-1.04
2019-01-03T09:39:52.255Z,-0.97
2019-01-03T09:41:00.350Z,-0.79
2019-01-03T09:42:08.383Z,-0.80
2019-01-03T09:43:16.468Z,-0.73
2019-01-03T09:44:24.497Z,-0.64
2019-01-03T09:45:40.821Z,-0.55
2019-01-03T09:46:40.750Z,-0.49
2019-01-03T09:47:48.647Z,-0.47
2019-01-03T09:48:56.709Z,-0.47
2019-01-03T09:50:04.764Z,-0.40
2019-01-03T09:51:12.865Z,-0.37
2019-01-03T09:52:20.871Z,-0.39
2019-01-03T09:53:28.927Z,-0.33
2019-01-03T09:54:37.036Z,-0.36
2019-01-03T09:55:45.032Z,-0.31
2019-01-03T09:56:53.094Z,-0.37
2019-01-03T09:58:01.208Z,-0.26
2019-01-03T09:59:09.199Z,-0.23
2019-01-03T10:00:17.268Z,-0.28
2019-01-03T10:01:25.349Z,-0.22
2019-01-03T10:02:33.379Z,-0.23
2019-01-03T10:03:41.430Z,-0.07
2019-01-03T10:04:49.475Z,0.04
2019-01-03T10:05:57.540Z,-0.05
2019-01-03T10:07:05.593Z,0.15
2019-01-03T10:08:19.480Z,0.17
2019-01-03T10:09:21.714Z,0.28
2019-01-03T10:10:29.789Z,0.20
2019-01-03T10:11:37.849Z,0.20
2019-01-03T10:12:45.880Z,0.24
2019-01-03T10:13:53.924Z,0.26
2019-01-03T10:15:02.037Z,0.28
2019-01-03T10:16:10.043Z,0.36
2019-01-03T10:17:18.128Z,0.29
2019-01-03T10:18:26.159Z,0.41
2019-01-03T10:19:34.207Z,0.41
2019-01-03T10:20:42.284Z,0.49
2019-01-03T10:21:50.363Z,0.42
2019-01-03T10:22:58.384Z,0.49
2019-01-03T10:24:06.474Z,0.46
2019-01-03T10:25:14.504Z,0.53
2019-01-03T10:26:22.576Z,0.58
2019-01-03T10:27:30.614Z,0.69
2019-01-03T10:28:38.711Z,0.61
2019-01-03T10:29:46.730Z,0.60
2019-01-03T10:30:54.789Z,0.76
2019-01-03T10:32:02.844Z,0.75
2019-01-03T10:33:10.911Z,0.78
2019-01-03T10:34:18.987Z,0.73
2019-01-03T10:35:27.013Z,0.90
2019-01-03T10:36:35.078Z,0.83
2019-01-03T10:37:43.133Z,0.83
2019-01-03T10:38:51.177Z,0.91
2019-01-03T10:39:59.293Z,0.88
2019-01-03T10:41:07.308Z,0.93
2019-01-03T10:42:15.344Z,0.97
2019-01-03T10:43:23.417Z,0.88
2019-01-03T10:44:31.461Z,0.91
2019-01-03T10:45:39.535Z,0.96
2019-01-03T10:46:47.601Z,1.04
2019-01-03T10:47:55.659Z,1.00
2019-01-03T10:49:03.716Z,1.06
2019-01-03T10:50:11.756Z,1.04
2019-01-03T10:51:19.801Z,1.11
2019-01-03T10:52:27.871Z,1.06
2019-01-03T10:53:35.921Z,1.05
2019-01-03T10:54:43.987Z,1.05
2019-01-03T10:55:52.030Z,1.05
2019-01-03T10:57:00.104Z,1.11
2019-01-03T10:58:08.154Z,1.04
2019-01-03T10:59:16.233Z,1.04
2019-01-03T11:00:24.295Z,1.02
2019-01-03T11:01:32.335Z,1.05
2019-01-03T11:02:40.381Z,1.12
2019-01-03T11:03:48.448Z,1.14
2019-01-03T11:04:56.500Z,1.14
2019-01-03T11:06:04.565Z,1.20
2019-01-03T11:07:12.631Z,1.08
2019-01-03T11:08:20.675Z,1.09
2019-01-03T11:09:28.732Z,1.08
2019-01-03T11:10:36.778Z,1.18
2019-01-03T11:11:44.836Z,1.22
2019-01-03T11:12:52.912Z,1.20
2019-01-03T11:14:00.945Z,1.18
2019-01-03T11:15:09.021Z,1.20
2019-01-03T11:16:17.071Z,1.09
2019-01-03T11:17:25.123Z,1.15
2019-01-03T11:18:33.197Z,1.24
2019-01-03T11:19:41.285Z,1.29
2019-01-03T11:20:49.305Z,1.26
2019-01-03T11:21:57.388Z,1.24
2019-01-03T11:23:05.433Z,1.24
2019-01-03T11:24:13.483Z,1.18
2019-01-03T11:25:21.524Z,1.16
2019-01-03T11:26:29.589Z,1.23
2019-01-03T11:27:37.641Z,1.04
2019-01-03T11:28:45.704Z,1.12
2019-01-03T11:29:53.775Z,1.09
2019-01-03T11:31:02.125Z,1.06
2019-01-03T11:32:09.868Z,1.04
2019-01-03T11:33:17.935Z,1.06
2019-01-03T11:34:25.999Z,1.06
2019-01-03T11:35:34.042Z,1.08
2019-01-03T11:36:42.164Z,1.09
2019-01-03T11:37:50.165Z,1.00
2019-01-03T11:38:58.226Z,1.18
2019-01-03T11:40:06.320Z,1.06
2019-01-03T11:41:14.373Z,1.14
2019-01-03T11:42:22.413Z,1.05
2019-01-03T11:43:30.453Z,1.14
2019-01-03T11:44:38.532Z,1.09
2019-01-03T11:45:46.578Z,1.11
2019-01-03T11:46:54.623Z,1.08
2019-01-03T11:48:02.703Z,1.02
2019-01-03T11:49:10.728Z,1.00
2019-01-03T11:50:18.815Z,0.91
2019-01-03T11:51:26.870Z,0.97
2019-01-03T11:52:34.923Z,1.00
2019-01-03T11:53:42.972Z,1.09
2019-01-03T11:54:51.029Z,1.06
2019-01-03T11:55:59.090Z,1.08
2019-01-03T11:57:07.191Z,1.06
2019-01-03T11:58:15.214Z,1.12
2019-01-03T11:59:23.273Z,1.11
2019-01-03T12:00:31.298Z,1.12
2019-01-03T12:01:39.393Z,1.15
2019-01-03T12:02:47.432Z,1.05
2019-01-03T12:03:55.489Z,1.11
2019-01-03T12:05:03.552Z,1.11
2019-01-03T12:06:11.607Z,1.12
2019-01-03T12:07:19.655Z,1.11
2019-01-03T12:08:27.742Z,1.14
2019-01-03T12:09:35.770Z,1.14
2019-01-03T12:10:43.828Z,1.32
2019-01-03T12:11:51.902Z,1.37
2019-01-03T12:12:59.955Z,1.36
2019-01-03T12:14:08.012Z,1.32
2019-01-03T12:15:16.080Z,1.24
2019-01-03T12:16:24.140Z,1.36
2019-01-03T12:17:32.205Z,1.26
2019-01-03T12:18:40.235Z,1.27
2019-01-03T12:19:48.311Z,1.33
2019-01-03T12:20:56.386Z,1.40
2019-01-03T12:22:04.420Z,1.37
2019-01-03T12:23:12.487Z,1.48
2019-01-03T12:24:20.521Z,1.44
2019-01-03T12:25:28.600Z,1.54
2019-01-03T12:26:36.641Z,1.62
2019-01-03T12:27:44.690Z,1.60
2019-01-03T12:28:52.769Z,1.72
2019-01-03T12:30:00.806Z,1.70
2019-01-03T12:31:08.880Z,1.68
2019-01-03T12:32:16.956Z,1.80
2019-01-03T12:33:25.006Z,1.86
2019-01-03T12:34:33.041Z,1.83
2019-01-03T12:35:41.131Z,1.86
2019-01-03T12:36:49.162Z,1.87
2019-01-03T12:37:57.215Z,1.84
2019-01-03T12:39:05.293Z,1.99
2019-01-03T12:40:13.363Z,1.98
2019-01-03T12:41:21.403Z,1.95
2019-01-03T12:42:29.460Z,2.03
2019-01-03T12:43:37.517Z,1.90
2019-01-03T12:44:45.585Z,1.91
2019-01-03T12:45:53.660Z,1.88
2019-01-03T12:47:01.669Z,1.95
2019-01-03T12:48:09.736Z,1.86
2019-01-03T12:49:17.812Z,1.87
2019-01-03T12:50:25.848Z,1.95
2019-01-03T12:51:33.908Z,1.90
2019-01-03T12:52:41.977Z,1.80
2019-01-03T12:53:50.029Z,1.80
2019-01-03T12:54:58.098Z,1.90
2019-01-03T12:56:06.144Z,1.86
2019-01-03T12:57:14.208Z,1.90
2019-01-03T12:58:22.271Z,1.91
2019-01-03T12:59:30.325Z,1.90
2019-01-03T13:00:38.389Z,2.00
2019-01-03T13:01:46.428Z,2.00
2019-01-03T13:02:54.480Z,1.87
2019-01-03T13:04:02.556Z,1.87
2019-01-03T13:05:10.626Z,1.88
2019-01-03T13:06:21.050Z,1.99
2019-01-03T13:07:26.719Z,2.00
2019-01-03T13:08:35.091Z,1.98
2019-01-03T13:09:42.838Z,1.91
2019-01-03T13:10:50.895Z,1.87
2019-01-03T13:11:58.957Z,1.99
2019-01-03T13:13:07.036Z,1.88
2019-01-03T13:14:15.072Z,1.86
2019-01-03T13:15:23.131Z,1.84
2019-01-03T13:16:31.178Z,1.91
2019-01-03T13:17:39.238Z,1.90
2019-01-03T13:18:47.311Z,1.91
2019-01-03T13:19:55.415Z,1.99
2019-01-03T13:21:03.420Z,1.93
2019-01-03T13:22:11.468Z,1.91
2019-01-03T13:23:19.539Z,2.03
2019-01-03T13:24:27.573Z,1.93
2019-01-03T13:25:35.686Z,2.03
2019-01-03T13:26:43.710Z,2.00
2019-01-03T13:27:51.765Z,1.91
2019-01-03T13:28:59.822Z,1.84
2019-01-03T13:30:07.890Z,1.79
2019-01-03T13:31:15.932Z,1.84
2019-01-03T13:32:24.058Z,1.79
2019-01-03T13:33:32.054Z,1.83
2019-01-03T13:34:40.127Z,1.80
2019-01-03T13:35:48.193Z,1.69
2019-01-03T13:36:56.230Z,1.65
2019-01-03T13:38:04.307Z,1.62
2019-01-03T13:39:12.343Z,1.58
2019-01-03T13:40:20.408Z,1.59
2019-01-03T13:41:28.470Z,1.52
2019-01-03T13:42:36.524Z,1.58
2019-01-03T13:43:44.580Z,1.54
2019-01-03T13:44:52.652Z,1.51
2019-01-03T13:46:00.679Z,1.45
2019-01-03T13:47:08.752Z,1.47
2019-01-03T13:48:16.793Z,1.55
2019-01-03T13:49:24.867Z,1.50
2019-01-03T13:50:32.911Z,1.54
2019-01-03T13:51:40.986Z,1.48
2019-01-03T13:52:49.048Z,1.48
2019-01-03T13:53:57.086Z,1.54
2019-01-03T13:55:05.146Z,1.48
2019-01-03T13:56:13.218Z,1.40
2019-01-03T13:57:21.242Z,1.40
2019-01-03T13:58:29.312Z,1.34
2019-01-03T13:59:37.388Z,1.27
2019-01-03T14:00:45.424Z,1.33
2019-01-03T14:01:53.519Z,1.14
2019-01-03T14:03:01.542Z,1.16
2019-01-03T14:04:09.639Z,1.15
2019-01-03T14:05:17.649Z,1.11
2019-01-03T14:06:25.723Z,1.06
2019-01-03T14:07:33.772Z,1.09
2019-01-03T14:08:41.823Z,1.00
2019-01-03T14:09:49.891Z,0.97
2019-01-03T14:10:57.956Z,1.00
2019-01-03T14:12:05.991Z,1.00
2019-01-03T14:13:14.037Z,1.00
2019-01-03T14:14:22.103Z,0.96
2019-01-03T14:15:30.162Z,0.98
2019-01-03T14:16:38.242Z,0.93
2019-01-03T14:17:46.288Z,0.91
2019-01-03T14:18:54.345Z,0.86
2019-01-03T14:20:02.405Z,0.75
2019-01-03T14:21:10.452Z,0.62
2019-01-03T14:22:18.527Z,0.60
2019-01-03T14:23:26.567Z,0.62
2019-01-03T14:24:34.630Z,0.65
2019-01-03T14:25:42.685Z,0.61
2019-01-03T14:26:50.719Z,0.61
2019-01-03T14:27:58.774Z,0.61
2019-01-03T14:29:06.845Z,0.60
2019-01-03T14:30:14.892Z,0.60
2019-01-03T14:31:22.949Z,0.62
2019-01-03T14:32:30.994Z,0.58
2019-01-03T14:33:39.074Z,0.65
2019-01-03T14:34:47.157Z,0.62
2019-01-03T14:35:55.195Z,0.69
2019-01-03T14:37:03.244Z,0.70
2019-01-03T14:38:11.327Z,0.72
2019-01-03T14:39:19.362Z,0.72
2019-01-03T14:40:27.424Z,0.73
2019-01-03T14:41:35.479Z,0.69
2019-01-03T14:42:43.537Z,0.83
2019-01-03T14:43:51.631Z,0.86
2019-01-03T14:44:59.636Z,0.70
2019-01-03T14:46:07.704Z,0.72
2019-01-03T14:47:15.749Z,0.75
2019-01-03T14:48:23.811Z,0.73